sensor_id;sensor_type;location;lat;lon;timestamp;P1;durP1;ratioP1;P2;durP2;ratioP2
48847;SDS011;36611;51.638;5.784;2022-11-15T00:01:48;23.35;;;14.45;;
48847;SDS011;36611;51.638;5.784;2022-11-15T00:04:34;21.83;;;15.15;;
48847;SDS011;36611;51.638;5.784;2022-11-15T00:07:19;20.55;;;14.40;;
48847;SDS011;36611;51.638;5.784;2022-11-15T00:10:24;24.60;;;15.48;;
48847;SDS011;36611;51.638;5.784;2022-11-15T00:13:10;24.60;;;15.43;;
48847;SDS011;36611;51.638;5.784;2022-11-15T00:15:57;24.10;;;15.65;;
48847;SDS011;36611;51.638;5.784;2022-11-15T00:18:43;23.48;;;15.68;;
48847;SDS011;36611;51.638;5.784;2022-11-15T00:21:35;24.67;;;16.77;;
48847;SDS011;36611;51.638;5.784;2022-11-15T00:27:13;27.58;;;16.17;;
48847;SDS011;36611;51.638;5.784;2022-11-15T00:29:58;26.45;;;16.98;;
48847;SDS011;36611;51.638;5.784;2022-11-15T00:32:43;27.20;;;16.80;;
48847;SDS011;36611;51.638;5.784;2022-11-15T00:35:33;21.77;;;14.75;;
48847;SDS011;36611;51.638;5.784;2022-11-15T00:38:18;19.48;;;14.48;;
48847;SDS011;36611;51.638;5.784;2022-11-15T00:41:04;21.52;;;15.05;;
48847;SDS011;36611;51.638;5.784;2022-11-15T00:43:53;23.30;;;15.23;;
48847;SDS011;36611;51.638;5.784;2022-11-15T00:46:43;21.47;;;14.23;;
48847;SDS011;36611;51.638;5.784;2022-11-15T00:49:28;20.67;;;14.68;;
48847;SDS011;36611;51.638;5.784;2022-11-15T00:52:13;22.97;;;15.73;;
48847;SDS011;36611;51.638;5.784;2022-11-15T00:54:58;24.90;;;14.77;;
48847;SDS011;36611;51.638;5.784;2022-11-15T00:57:43;23.52;;;15.70;;
48847;SDS011;36611;51.638;5.784;2022-11-15T01:00:29;19.83;;;13.63;;
48847;SDS011;36611;51.638;5.784;2022-11-15T01:03:14;20.48;;;14.85;;
48847;SDS011;36611;51.638;5.784;2022-11-15T01:06:01;20.48;;;14.32;;
48847;SDS011;36611;51.638;5.784;2022-11-15T01:08:47;18.60;;;13.93;;
48847;SDS011;36611;51.638;5.784;2022-11-15T01:11:32;23.83;;;15.53;;
48847;SDS011;36611;51.638;5.784;2022-11-15T01:14:21;21.02;;;14.18;;
48847;SDS011;36611;51.638;5.784;2022-11-15T01:17:09;21.80;;;14.98;;
48847;SDS011;36611;51.638;5.784;2022-11-15T01:19:54;20.90;;;14.18;;
48847;SDS011;36611;51.638;5.784;2022-11-15T01:22:40;18.92;;;14.23;;
48847;SDS011;36611;51.638;5.784;2022-11-15T01:25:30;17.90;;;14.00;;
48847;SDS011;36611;51.638;5.784;2022-11-15T01:28:15;21.83;;;14.75;;
48847;SDS011;36611;51.638;5.784;2022-11-15T01:31:00;18.85;;;13.95;;
48847;SDS011;36611;51.638;5.784;2022-11-15T01:33:47;17.92;;;14.30;;
48847;SDS011;36611;51.638;5.784;2022-11-15T01:36:36;19.65;;;13.75;;
48847;SDS011;36611;51.638;5.784;2022-11-15T01:39:21;20.17;;;14.75;;
48847;SDS011;36611;51.638;5.784;2022-11-15T01:42:09;20.40;;;14.32;;
48847;SDS011;36611;51.638;5.784;2022-11-15T01:44:58;20.27;;;13.95;;
48847;SDS011;36611;51.638;5.784;2022-11-15T01:47:45;20.75;;;14.73;;
48847;SDS011;36611;51.638;5.784;2022-11-15T01:50:35;22.05;;;14.30;;
48847;SDS011;36611;51.638;5.784;2022-11-15T01:53:21;20.88;;;14.68;;
48847;SDS011;36611;51.638;5.784;2022-11-15T01:56:14;22.42;;;14.70;;
48847;SDS011;36611;51.638;5.784;2022-11-15T01:59:03;19.95;;;14.52;;
48847;SDS011;36611;51.638;5.784;2022-11-15T02:01:50;19.30;;;14.23;;
48847;SDS011;36611;51.638;5.784;2022-11-15T02:04:43;20.65;;;14.63;;
48847;SDS011;36611;51.638;5.784;2022-11-15T02:07:30;22.95;;;15.18;;
48847;SDS011;36611;51.638;5.784;2022-11-15T02:10:18;20.90;;;14.52;;
48847;SDS011;36611;51.638;5.784;2022-11-15T02:13:04;21.70;;;14.27;;
48847;SDS011;36611;51.638;5.784;2022-11-15T02:16:05;23.27;;;15.23;;
48847;SDS011;36611;51.638;5.784;2022-11-15T02:19:22;22.13;;;15.40;;
48847;SDS011;36611;51.638;5.784;2022-11-15T02:22:41;19.58;;;14.43;;
48847;SDS011;36611;51.638;5.784;2022-11-15T02:32:40;21.77;;;15.10;;
48847;SDS011;36611;51.638;5.784;2022-11-15T02:35:37;24.17;;;15.43;;
48847;SDS011;36611;51.638;5.784;2022-11-15T02:41:54;23.95;;;15.30;;
48847;SDS011;36611;51.638;5.784;2022-11-15T02:44:48;23.88;;;15.88;;
48847;SDS011;36611;51.638;5.784;2022-11-15T02:47:37;22.08;;;15.55;;
48847;SDS011;36611;51.638;5.784;2022-11-15T02:50:28;22.27;;;14.75;;
48847;SDS011;36611;51.638;5.784;2022-11-15T02:53:16;27.45;;;16.70;;
48847;SDS011;36611;51.638;5.784;2022-11-15T02:56:02;25.20;;;16.05;;
48847;SDS011;36611;51.638;5.784;2022-11-15T02:58:56;24.95;;;15.88;;
48847;SDS011;36611;51.638;5.784;2022-11-15T03:08:28;21.98;;;15.52;;
48847;SDS011;36611;51.638;5.784;2022-11-15T03:11:35;25.80;;;16.20;;
48847;SDS011;36611;51.638;5.784;2022-11-15T03:14:31;22.17;;;16.25;;
48847;SDS011;36611;51.638;5.784;2022-11-15T03:20:11;22.50;;;16.75;;
48847;SDS011;36611;51.638;5.784;2022-11-15T03:23:01;23.58;;;15.77;;
48847;SDS011;36611;51.638;5.784;2022-11-15T03:25:51;23.55;;;15.15;;
48847;SDS011;36611;51.638;5.784;2022-11-15T03:28:41;22.75;;;15.63;;
48847;SDS011;36611;51.638;5.784;2022-11-15T03:31:32;23.02;;;16.08;;
48847;SDS011;36611;51.638;5.784;2022-11-15T03:34:46;22.30;;;15.73;;
48847;SDS011;36611;51.638;5.784;2022-11-15T03:37:43;22.52;;;15.43;;
48847;SDS011;36611;51.638;5.784;2022-11-15T03:40:36;22.38;;;15.88;;
48847;SDS011;36611;51.638;5.784;2022-11-15T03:43:33;22.20;;;15.07;;
48847;SDS011;36611;51.638;5.784;2022-11-15T03:46:34;21.50;;;15.38;;
48847;SDS011;36611;51.638;5.784;2022-11-15T03:49:27;23.02;;;15.15;;
48847;SDS011;36611;51.638;5.784;2022-11-15T03:52:18;25.10;;;15.25;;
48847;SDS011;36611;51.638;5.784;2022-11-15T03:55:07;24.17;;;16.17;;
48847;SDS011;36611;51.638;5.784;2022-11-15T03:57:56;24.35;;;15.82;;
48847;SDS011;36611;51.638;5.784;2022-11-15T04:00:43;27.13;;;16.90;;
48847;SDS011;36611;51.638;5.784;2022-11-15T04:03:28;28.10;;;16.83;;
48847;SDS011;36611;51.638;5.784;2022-11-15T04:06:15;30.65;;;18.90;;
48847;SDS011;36611;51.638;5.784;2022-11-15T04:09:00;26.00;;;17.65;;
48847;SDS011;36611;51.638;5.784;2022-11-15T04:11:45;29.90;;;17.63;;
48847;SDS011;36611;51.638;5.784;2022-11-15T04:14:33;26.33;;;18.47;;
48847;SDS011;36611;51.638;5.784;2022-11-15T04:17:18;27.33;;;18.27;;
48847;SDS011;36611;51.638;5.784;2022-11-15T04:20:07;30.67;;;18.60;;
48847;SDS011;36611;51.638;5.784;2022-11-15T04:23:17;26.20;;;17.25;;
48847;SDS011;36611;51.638;5.784;2022-11-15T04:26:25;29.52;;;18.63;;
48847;SDS011;36611;51.638;5.784;2022-11-15T04:29:10;31.17;;;19.25;;
48847;SDS011;36611;51.638;5.784;2022-11-15T04:32:14;26.15;;;16.75;;
48847;SDS011;36611;51.638;5.784;2022-11-15T04:35:00;27.67;;;17.13;;
48847;SDS011;36611;51.638;5.784;2022-11-15T04:37:45;25.30;;;16.58;;
48847;SDS011;36611;51.638;5.784;2022-11-15T04:40:33;24.55;;;16.58;;
48847;SDS011;36611;51.638;5.784;2022-11-15T04:43:19;24.60;;;16.25;;
48847;SDS011;36611;51.638;5.784;2022-11-15T04:46:06;30.08;;;16.83;;
48847;SDS011;36611;51.638;5.784;2022-11-15T04:48:51;27.70;;;16.42;;
48847;SDS011;36611;51.638;5.784;2022-11-15T04:51:42;27.15;;;16.95;;
48847;SDS011;36611;51.638;5.784;2022-11-15T04:54:29;22.98;;;16.48;;
48847;SDS011;36611;51.638;5.784;2022-11-15T04:57:14;25.80;;;16.40;;
48847;SDS011;36611;51.638;5.784;2022-11-15T05:00:00;24.00;;;16.40;;
48847;SDS011;36611;51.638;5.784;2022-11-15T05:02:47;22.73;;;16.02;;
48847;SDS011;36611;51.638;5.784;2022-11-15T05:09:03;25.98;;;14.93;;
48847;SDS011;36611;51.638;5.784;2022-11-15T05:11:48;24.10;;;14.48;;
48847;SDS011;36611;51.638;5.784;2022-11-15T05:14:36;22.17;;;15.00;;
48847;SDS011;36611;51.638;5.784;2022-11-15T05:17:21;21.20;;;15.65;;
48847;SDS011;36611;51.638;5.784;2022-11-15T05:20:06;23.17;;;16.05;;
48847;SDS011;36611;51.638;5.784;2022-11-15T05:22:52;18.73;;;15.55;;
48847;SDS011;36611;51.638;5.784;2022-11-15T05:25:44;26.13;;;16.50;;
48847;SDS011;36611;51.638;5.784;2022-11-15T05:28:30;23.55;;;16.38;;
48847;SDS011;36611;51.638;5.784;2022-11-15T05:31:15;22.67;;;15.30;;
48847;SDS011;36611;51.638;5.784;2022-11-15T05:34:01;25.85;;;15.68;;
48847;SDS011;36611;51.638;5.784;2022-11-15T05:36:50;20.77;;;14.93;;
48847;SDS011;36611;51.638;5.784;2022-11-15T05:39:36;26.63;;;16.30;;
48847;SDS011;36611;51.638;5.784;2022-11-15T05:42:21;23.20;;;15.43;;
48847;SDS011;36611;51.638;5.784;2022-11-15T05:45:06;23.48;;;14.77;;
48847;SDS011;36611;51.638;5.784;2022-11-15T05:47:53;20.02;;;13.65;;
48847;SDS011;36611;51.638;5.784;2022-11-15T05:50:42;19.45;;;13.88;;
48847;SDS011;36611;51.638;5.784;2022-11-15T05:53:30;18.48;;;13.38;;
48847;SDS011;36611;51.638;5.784;2022-11-15T05:56:16;20.50;;;14.00;;
48847;SDS011;36611;51.638;5.784;2022-11-15T05:59:01;21.70;;;14.23;;
48847;SDS011;36611;51.638;5.784;2022-11-15T06:04:36;21.17;;;13.98;;
48847;SDS011;36611;51.638;5.784;2022-11-15T06:07:22;22.58;;;14.25;;
48847;SDS011;36611;51.638;5.784;2022-11-15T06:10:07;21.75;;;15.35;;
48847;SDS011;36611;51.638;5.784;2022-11-15T06:15:49;20.85;;;13.73;;
48847;SDS011;36611;51.638;5.784;2022-11-15T06:18:34;19.85;;;14.45;;
48847;SDS011;36611;51.638;5.784;2022-11-15T06:21:21;18.13;;;13.35;;
48847;SDS011;36611;51.638;5.784;2022-11-15T06:24:06;20.48;;;13.77;;
48847;SDS011;36611;51.638;5.784;2022-11-15T06:26:53;21.02;;;12.90;;
48847;SDS011;36611;51.638;5.784;2022-11-15T06:29:38;20.55;;;13.95;;
48847;SDS011;36611;51.638;5.784;2022-11-15T06:32:23;18.63;;;12.37;;
48847;SDS011;36611;51.638;5.784;2022-11-15T06:35:08;18.55;;;13.02;;
48847;SDS011;36611;51.638;5.784;2022-11-15T06:37:53;19.17;;;12.45;;
48847;SDS011;36611;51.638;5.784;2022-11-15T06:40:39;19.00;;;12.27;;
48847;SDS011;36611;51.638;5.784;2022-11-15T06:43:24;19.75;;;12.23;;
48847;SDS011;36611;51.638;5.784;2022-11-15T06:46:11;21.90;;;13.27;;
48847;SDS011;36611;51.638;5.784;2022-11-15T06:48:56;21.67;;;13.38;;
48847;SDS011;36611;51.638;5.784;2022-11-15T06:51:41;16.23;;;12.00;;
48847;SDS011;36611;51.638;5.784;2022-11-15T06:54:29;22.00;;;13.40;;
48847;SDS011;36611;51.638;5.784;2022-11-15T06:57:14;15.90;;;11.70;;
48847;SDS011;36611;51.638;5.784;2022-11-15T07:00:00;18.60;;;12.15;;
48847;SDS011;36611;51.638;5.784;2022-11-15T07:02:45;16.63;;;11.05;;
48847;SDS011;36611;51.638;5.784;2022-11-15T07:05:35;16.13;;;11.52;;
48847;SDS011;36611;51.638;5.784;2022-11-15T07:08:21;15.82;;;10.15;;
48847;SDS011;36611;51.638;5.784;2022-11-15T07:11:07;15.13;;;10.25;;
48847;SDS011;36611;51.638;5.784;2022-11-15T07:13:53;16.40;;;10.13;;
48847;SDS011;36611;51.638;5.784;2022-11-15T07:16:41;17.23;;;9.90;;
48847;SDS011;36611;51.638;5.784;2022-11-15T07:19:26;15.40;;;9.75;;
48847;SDS011;36611;51.638;5.784;2022-11-15T07:22:11;14.48;;;9.63;;
48847;SDS011;36611;51.638;5.784;2022-11-15T07:24:57;14.25;;;9.40;;
48847;SDS011;36611;51.638;5.784;2022-11-15T07:30:27;17.17;;;9.70;;
48847;SDS011;36611;51.638;5.784;2022-11-15T07:33:12;16.05;;;9.45;;
48847;SDS011;36611;51.638;5.784;2022-11-15T07:36:00;11.35;;;8.93;;
48847;SDS011;36611;51.638;5.784;2022-11-15T07:38:49;17.15;;;9.40;;
48847;SDS011;36611;51.638;5.784;2022-11-15T07:41:34;12.85;;;9.10;;
48847;SDS011;36611;51.638;5.784;2022-11-15T07:47:13;14.60;;;9.93;;
48847;SDS011;36611;51.638;5.784;2022-11-15T07:49:59;12.93;;;9.02;;
48847;SDS011;36611;51.638;5.784;2022-11-15T07:52:44;15.47;;;10.27;;
48847;SDS011;36611;51.638;5.784;2022-11-15T07:55:33;14.30;;;10.90;;
48847;SDS011;36611;51.638;5.784;2022-11-15T07:58:19;13.85;;;10.30;;
48847;SDS011;36611;51.638;5.784;2022-11-15T08:01:08;14.70;;;10.60;;
48847;SDS011;36611;51.638;5.784;2022-11-15T08:03:54;19.10;;;10.13;;
48847;SDS011;36611;51.638;5.784;2022-11-15T08:06:40;13.57;;;10.45;;
48847;SDS011;36611;51.638;5.784;2022-11-15T08:09:26;12.90;;;9.77;;
48847;SDS011;36611;51.638;5.784;2022-11-15T08:12:11;19.70;;;9.82;;
48847;SDS011;36611;51.638;5.784;2022-11-15T08:14:57;12.43;;;9.40;;
48847;SDS011;36611;51.638;5.784;2022-11-15T08:17:42;13.90;;;8.57;;
48847;SDS011;36611;51.638;5.784;2022-11-15T08:20:28;14.23;;;9.15;;
48847;SDS011;36611;51.638;5.784;2022-11-15T08:23:16;14.38;;;8.48;;
48847;SDS011;36611;51.638;5.784;2022-11-15T08:26:04;11.43;;;8.13;;
48847;SDS011;36611;51.638;5.784;2022-11-15T08:28:49;13.77;;;7.50;;
48847;SDS011;36611;51.638;5.784;2022-11-15T08:31:35;10.82;;;7.55;;
48847;SDS011;36611;51.638;5.784;2022-11-15T08:34:25;10.85;;;7.90;;
48847;SDS011;36611;51.638;5.784;2022-11-15T08:37:10;15.80;;;7.93;;
48847;SDS011;36611;51.638;5.784;2022-11-15T08:39:55;15.63;;;7.80;;
48847;SDS011;36611;51.638;5.784;2022-11-15T08:42:40;13.77;;;7.32;;
48847;SDS011;36611;51.638;5.784;2022-11-15T08:45:30;11.38;;;7.13;;
48847;SDS011;36611;51.638;5.784;2022-11-15T08:48:15;12.30;;;7.63;;
48847;SDS011;36611;51.638;5.784;2022-11-15T08:51:00;10.80;;;7.50;;
48847;SDS011;36611;51.638;5.784;2022-11-15T08:53:45;12.55;;;7.53;;
48847;SDS011;36611;51.638;5.784;2022-11-15T08:56:30;9.98;;;7.40;;
48847;SDS011;36611;51.638;5.784;2022-11-15T08:59:16;11.30;;;7.70;;
48847;SDS011;36611;51.638;5.784;2022-11-15T09:02:01;14.70;;;7.40;;
48847;SDS011;36611;51.638;5.784;2022-11-15T09:04:47;9.40;;;7.07;;
48847;SDS011;36611;51.638;5.784;2022-11-15T09:07:32;9.70;;;6.80;;
48847;SDS011;36611;51.638;5.784;2022-11-15T09:10:18;9.40;;;6.90;;
48847;SDS011;36611;51.638;5.784;2022-11-15T09:13:03;10.38;;;7.38;;
48847;SDS011;36611;51.638;5.784;2022-11-15T09:15:48;11.63;;;6.57;;
48847;SDS011;36611;51.638;5.784;2022-11-15T09:18:33;8.55;;;6.53;;
48847;SDS011;36611;51.638;5.784;2022-11-15T09:21:19;9.75;;;6.75;;
48847;SDS011;36611;51.638;5.784;2022-11-15T09:24:04;8.63;;;6.30;;
48847;SDS011;36611;51.638;5.784;2022-11-15T09:26:51;12.35;;;7.07;;
48847;SDS011;36611;51.638;5.784;2022-11-15T09:29:36;7.68;;;5.35;;
48847;SDS011;36611;51.638;5.784;2022-11-15T09:32:21;7.40;;;4.50;;
48847;SDS011;36611;51.638;5.784;2022-11-15T09:35:11;6.55;;;4.70;;
48847;SDS011;36611;51.638;5.784;2022-11-15T09:37:57;7.97;;;4.72;;
48847;SDS011;36611;51.638;5.784;2022-11-15T09:40:42;6.28;;;4.05;;
48847;SDS011;36611;51.638;5.784;2022-11-15T09:43:32;4.60;;;3.72;;
48847;SDS011;36611;51.638;5.784;2022-11-15T09:50:15;5.57;;;3.28;;
48847;SDS011;36611;51.638;5.784;2022-11-15T09:52:46;3.05;;;2.60;;
48847;SDS011;36611;51.638;5.784;2022-11-15T09:55:15;3.70;;;2.55;;
48847;SDS011;36611;51.638;5.784;2022-11-15T09:57:50;5.27;;;3.20;;
48847;SDS011;36611;51.638;5.784;2022-11-15T10:03:17;4.18;;;2.60;;
48847;SDS011;36611;51.638;5.784;2022-11-15T10:05:53;3.10;;;2.63;;
48847;SDS011;36611;51.638;5.784;2022-11-15T10:10:57;5.03;;;2.42;;
48847;SDS011;36611;51.638;5.784;2022-11-15T10:13:46;3.15;;;2.25;;
48847;SDS011;36611;51.638;5.784;2022-11-15T10:22:20;3.28;;;1.90;;
48847;SDS011;36611;51.638;5.784;2022-11-15T10:24:40;3.40;;;2.13;;
48847;SDS011;36611;51.638;5.784;2022-11-15T10:27:12;2.08;;;1.67;;
48847;SDS011;36611;51.638;5.784;2022-11-15T10:29:44;3.38;;;1.88;;
48847;SDS011;36611;51.638;5.784;2022-11-15T10:32:17;6.97;;;2.70;;
48847;SDS011;36611;51.638;5.784;2022-11-15T10:34:49;7.38;;;2.08;;
48847;SDS011;36611;51.638;5.784;2022-11-15T10:37:27;4.03;;;2.00;;
48847;SDS011;36611;51.638;5.784;2022-11-15T10:42:42;3.70;;;1.90;;
48847;SDS011;36611;51.638;5.784;2022-11-15T10:45:29;4.72;;;1.48;;
48847;SDS011;36611;51.638;5.784;2022-11-15T10:50:43;3.92;;;1.70;;
48847;SDS011;36611;51.638;5.784;2022-11-15T10:56:02;3.85;;;1.95;;
48847;SDS011;36611;51.638;5.784;2022-11-15T11:01:17;5.03;;;1.70;;
48847;SDS011;36611;51.638;5.784;2022-11-15T11:04:02;5.72;;;1.70;;
48847;SDS011;36611;51.638;5.784;2022-11-15T11:06:46;6.75;;;1.60;;
48847;SDS011;36611;51.638;5.784;2022-11-15T11:09:55;3.63;;;1.77;;
48847;SDS011;36611;51.638;5.784;2022-11-15T11:12:11;3.63;;;1.90;;
48847;SDS011;36611;51.638;5.784;2022-11-15T11:14:40;3.60;;;1.60;;
48847;SDS011;36611;51.638;5.784;2022-11-15T11:26:07;4.33;;;1.53;;
48847;SDS011;36611;51.638;5.784;2022-11-15T11:31:25;2.35;;;1.30;;
48847;SDS011;36611;51.638;5.784;2022-11-15T11:34:51;2.60;;;1.60;;
48847;SDS011;36611;51.638;5.784;2022-11-15T11:37:10;3.25;;;1.23;;
48847;SDS011;36611;51.638;5.784;2022-11-15T11:48:21;4.55;;;1.55;;
48847;SDS011;36611;51.638;5.784;2022-11-15T11:53:50;4.70;;;1.60;;
48847;SDS011;36611;51.638;5.784;2022-11-15T11:56:33;3.08;;;1.42;;
48847;SDS011;36611;51.638;5.784;2022-11-15T11:59:16;4.72;;;1.85;;
48847;SDS011;36611;51.638;5.784;2022-11-15T12:01:49;3.10;;;1.63;;
48847;SDS011;36611;51.638;5.784;2022-11-15T12:07:15;4.85;;;1.75;;
48847;SDS011;36611;51.638;5.784;2022-11-15T12:09:48;4.25;;;1.33;;
48847;SDS011;36611;51.638;5.784;2022-11-15T12:12:31;3.65;;;1.83;;
48847;SDS011;36611;51.638;5.784;2022-11-15T12:15:15;2.35;;;1.10;;
48847;SDS011;36611;51.638;5.784;2022-11-15T12:17:45;2.20;;;1.20;;
48847;SDS011;36611;51.638;5.784;2022-11-15T12:22:57;2.47;;;0.93;;
48847;SDS011;36611;51.638;5.784;2022-11-15T12:25:31;1.70;;;1.20;;
48847;SDS011;36611;51.638;5.784;2022-11-15T12:31:01;2.55;;;1.20;;
48847;SDS011;36611;51.638;5.784;2022-11-15T12:41:26;3.65;;;0.88;;
48847;SDS011;36611;51.638;5.784;2022-11-15T12:43:55;3.53;;;1.15;;
48847;SDS011;36611;51.638;5.784;2022-11-15T12:48:56;3.42;;;1.08;;
48847;SDS011;36611;51.638;5.784;2022-11-15T12:59:59;4.95;;;1.10;;
48847;SDS011;36611;51.638;5.784;2022-11-15T13:02:39;3.83;;;1.10;;
48847;SDS011;36611;51.638;5.784;2022-11-15T13:33:46;4.25;;;1.27;;
48847;SDS011;36611;51.638;5.784;2022-11-15T13:36:18;4.22;;;1.23;;
48847;SDS011;36611;51.638;5.784;2022-11-15T13:38:58;2.45;;;0.80;;
48847;SDS011;36611;51.638;5.784;2022-11-15T13:41:28;6.63;;;1.58;;
48847;SDS011;36611;51.638;5.784;2022-11-15T13:44:00;4.25;;;0.93;;
48847;SDS011;36611;51.638;5.784;2022-11-15T13:46:33;2.35;;;0.90;;
48847;SDS011;36611;51.638;5.784;2022-11-15T13:49:04;6.07;;;1.05;;
48847;SDS011;36611;51.638;5.784;2022-11-15T13:51:46;7.05;;;1.10;;
48847;SDS011;36611;51.638;5.784;2022-11-15T13:54:34;1.52;;;0.70;;
48847;SDS011;36611;51.638;5.784;2022-11-15T13:59:51;4.20;;;0.85;;
48847;SDS011;36611;51.638;5.784;2022-11-15T14:02:21;3.47;;;1.10;;
48847;SDS011;36611;51.638;5.784;2022-11-15T14:05:17;3.38;;;1.00;;
48847;SDS011;36611;51.638;5.784;2022-11-15T14:07:52;3.83;;;1.30;;
48847;SDS011;36611;51.638;5.784;2022-11-15T14:10:34;3.40;;;1.05;;
48847;SDS011;36611;51.638;5.784;2022-11-15T14:13:03;2.88;;;0.80;;
48847;SDS011;36611;51.638;5.784;2022-11-15T14:15:34;3.33;;;1.00;;
48847;SDS011;36611;51.638;5.784;2022-11-15T14:18:03;4.20;;;0.90;;
48847;SDS011;36611;51.638;5.784;2022-11-15T14:23:05;3.47;;;0.90;;
48847;SDS011;36611;51.638;5.784;2022-11-15T14:25:57;2.55;;;0.80;;
48847;SDS011;36611;51.638;5.784;2022-11-15T14:30:53;3.45;;;1.10;;
48847;SDS011;36611;51.638;5.784;2022-11-15T14:33:32;6.13;;;1.27;;
48847;SDS011;36611;51.638;5.784;2022-11-15T14:36:16;3.55;;;0.93;;
48847;SDS011;36611;51.638;5.784;2022-11-15T14:38:45;2.53;;;0.75;;
48847;SDS011;36611;51.638;5.784;2022-11-15T14:43:46;1.20;;;0.90;;
48847;SDS011;36611;51.638;5.784;2022-11-15T14:46:18;1.08;;;0.80;;
48847;SDS011;36611;51.638;5.784;2022-11-15T14:48:45;4.10;;;0.85;;
48847;SDS011;36611;51.638;5.784;2022-11-15T14:51:18;1.83;;;0.90;;
48847;SDS011;36611;51.638;5.784;2022-11-15T14:53:45;3.35;;;0.70;;
48847;SDS011;36611;51.638;5.784;2022-11-15T14:56:13;3.40;;;1.02;;
48847;SDS011;36611;51.638;5.784;2022-11-15T14:58:40;3.88;;;1.00;;
48847;SDS011;36611;51.638;5.784;2022-11-15T15:01:20;3.72;;;0.95;;
48847;SDS011;36611;51.638;5.784;2022-11-15T15:03:49;5.25;;;1.13;;
48847;SDS011;36611;51.638;5.784;2022-11-15T15:06:22;3.55;;;1.17;;
48847;SDS011;36611;51.638;5.784;2022-11-15T15:08:49;2.13;;;1.10;;
48847;SDS011;36611;51.638;5.784;2022-11-15T15:13:49;3.35;;;1.13;;
48847;SDS011;36611;51.638;5.784;2022-11-15T15:16:19;4.93;;;1.20;;
48847;SDS011;36611;51.638;5.784;2022-11-15T15:18:45;3.47;;;1.15;;
48847;SDS011;36611;51.638;5.784;2022-11-15T15:21:17;2.03;;;0.90;;
48847;SDS011;36611;51.638;5.784;2022-11-15T15:23:48;2.78;;;1.00;;
48847;SDS011;36611;51.638;5.784;2022-11-15T15:26:15;1.98;;;1.05;;
48847;SDS011;36611;51.638;5.784;2022-11-15T15:28:42;3.53;;;0.90;;
48847;SDS011;36611;51.638;5.784;2022-11-15T15:31:09;2.55;;;0.90;;
48847;SDS011;36611;51.638;5.784;2022-11-15T15:33:36;1.98;;;1.08;;
48847;SDS011;36611;51.638;5.784;2022-11-15T15:36:11;2.90;;;1.13;;
48847;SDS011;36611;51.638;5.784;2022-11-15T15:38:39;3.40;;;1.20;;
48847;SDS011;36611;51.638;5.784;2022-11-15T15:41:09;4.00;;;1.38;;
48847;SDS011;36611;51.638;5.784;2022-11-15T15:43:39;4.68;;;1.48;;
48847;SDS011;36611;51.638;5.784;2022-11-15T15:46:10;2.58;;;1.38;;
48847;SDS011;36611;51.638;5.784;2022-11-15T15:48:38;4.00;;;1.75;;
48847;SDS011;36611;51.638;5.784;2022-11-15T15:51:06;4.38;;;1.13;;
48847;SDS011;36611;51.638;5.784;2022-11-15T15:53:43;2.92;;;1.55;;
48847;SDS011;36611;51.638;5.784;2022-11-15T15:56:13;6.55;;;1.25;;
48847;SDS011;36611;51.638;5.784;2022-11-15T15:58:40;4.25;;;1.38;;
48847;SDS011;36611;51.638;5.784;2022-11-15T16:01:06;2.85;;;1.30;;
48847;SDS011;36611;51.638;5.784;2022-11-15T16:03:33;3.47;;;1.27;;
48847;SDS011;36611;51.638;5.784;2022-11-15T16:06:00;4.80;;;1.15;;
48847;SDS011;36611;51.638;5.784;2022-11-15T16:08:30;2.50;;;1.10;;
48847;SDS011;36611;51.638;5.784;2022-11-15T16:11:13;3.25;;;1.20;;
48847;SDS011;36611;51.638;5.784;2022-11-15T16:13:40;6.45;;;1.13;;
48847;SDS011;36611;51.638;5.784;2022-11-15T16:16:08;6.68;;;1.30;;
48847;SDS011;36611;51.638;5.784;2022-11-15T16:18:39;4.30;;;1.15;;
48847;SDS011;36611;51.638;5.784;2022-11-15T16:21:07;9.07;;;1.42;;
48847;SDS011;36611;51.638;5.784;2022-11-15T16:23:34;3.63;;;1.10;;
48847;SDS011;36611;51.638;5.784;2022-11-15T16:26:21;2.47;;;1.13;;
48847;SDS011;36611;51.638;5.784;2022-11-15T16:28:50;3.78;;;1.48;;
48847;SDS011;36611;51.638;5.784;2022-11-15T16:31:18;5.90;;;1.42;;
48847;SDS011;36611;51.638;5.784;2022-11-15T16:33:47;3.72;;;1.30;;
48847;SDS011;36611;51.638;5.784;2022-11-15T16:36:17;5.15;;;1.58;;
48847;SDS011;36611;51.638;5.784;2022-11-15T16:38:56;2.20;;;1.27;;
48847;SDS011;36611;51.638;5.784;2022-11-15T16:41:23;2.75;;;1.40;;
48847;SDS011;36611;51.638;5.784;2022-11-15T16:43:50;3.33;;;1.63;;
48847;SDS011;36611;51.638;5.784;2022-11-15T16:46:21;1.85;;;1.38;;
48847;SDS011;36611;51.638;5.784;2022-11-15T16:48:49;4.20;;;1.55;;
48847;SDS011;36611;51.638;5.784;2022-11-15T16:51:16;3.45;;;1.85;;
48847;SDS011;36611;51.638;5.784;2022-11-15T16:53:43;4.93;;;1.42;;
48847;SDS011;36611;51.638;5.784;2022-11-15T16:56:22;4.57;;;1.65;;
48847;SDS011;36611;51.638;5.784;2022-11-15T16:58:51;5.25;;;2.05;;
48847;SDS011;36611;51.638;5.784;2022-11-15T17:01:35;3.85;;;1.60;;
48847;SDS011;36611;51.638;5.784;2022-11-15T17:04:18;3.90;;;2.30;;
48847;SDS011;36611;51.638;5.784;2022-11-15T17:06:47;2.72;;;2.10;;
48847;SDS011;36611;51.638;5.784;2022-11-15T17:09:21;3.80;;;2.03;;
48847;SDS011;36611;51.638;5.784;2022-11-15T17:11:51;4.70;;;2.13;;
48847;SDS011;36611;51.638;5.784;2022-11-15T17:14:22;3.85;;;2.17;;
48847;SDS011;36611;51.638;5.784;2022-11-15T17:16:48;4.28;;;2.28;;
48847;SDS011;36611;51.638;5.784;2022-11-15T17:19:19;3.55;;;2.35;;
48847;SDS011;36611;51.638;5.784;2022-11-15T17:21:47;3.25;;;2.17;;
48847;SDS011;36611;51.638;5.784;2022-11-15T17:26:48;6.68;;;2.70;;
48847;SDS011;36611;51.638;5.784;2022-11-15T17:29:14;5.90;;;2.83;;
48847;SDS011;36611;51.638;5.784;2022-11-15T17:31:41;4.47;;;2.63;;
48847;SDS011;36611;51.638;5.784;2022-11-15T17:34:07;4.78;;;2.33;;
48847;SDS011;36611;51.638;5.784;2022-11-15T17:36:39;4.47;;;2.72;;
48847;SDS011;36611;51.638;5.784;2022-11-15T17:39:05;3.70;;;2.42;;
48847;SDS011;36611;51.638;5.784;2022-11-15T17:41:32;5.57;;;2.72;;
48847;SDS011;36611;51.638;5.784;2022-11-15T17:43:59;4.93;;;2.80;;
48847;SDS011;36611;51.638;5.784;2022-11-15T17:46:27;5.15;;;2.78;;
48847;SDS011;36611;51.638;5.784;2022-11-15T17:48:55;6.82;;;2.97;;
48847;SDS011;36611;51.638;5.784;2022-11-15T17:51:22;4.68;;;2.78;;
48847;SDS011;36611;51.638;5.784;2022-11-15T17:53:49;5.13;;;3.00;;
48847;SDS011;36611;51.638;5.784;2022-11-15T17:56:17;4.35;;;3.50;;
48847;SDS011;36611;51.638;5.784;2022-11-15T17:58:49;5.40;;;2.88;;
48847;SDS011;36611;51.638;5.784;2022-11-15T18:01:19;4.82;;;2.90;;
48847;SDS011;36611;51.638;5.784;2022-11-15T18:03:46;3.83;;;3.25;;
48847;SDS011;36611;51.638;5.784;2022-11-15T18:06:18;5.30;;;3.20;;
48847;SDS011;36611;51.638;5.784;2022-11-15T18:08:46;5.00;;;2.78;;
48847;SDS011;36611;51.638;5.784;2022-11-15T18:11:15;6.30;;;3.13;;
48847;SDS011;36611;51.638;5.784;2022-11-15T18:13:45;5.03;;;3.15;;
48847;SDS011;36611;51.638;5.784;2022-11-15T18:16:19;6.47;;;3.17;;
48847;SDS011;36611;51.638;5.784;2022-11-15T18:18:47;4.00;;;2.92;;
48847;SDS011;36611;51.638;5.784;2022-11-15T18:21:15;4.15;;;3.20;;
48847;SDS011;36611;51.638;5.784;2022-11-15T18:23:45;5.75;;;3.38;;
48847;SDS011;36611;51.638;5.784;2022-11-15T18:26:16;6.80;;;3.38;;
48847;SDS011;36611;51.638;5.784;2022-11-15T18:28:47;4.93;;;3.33;;
48847;SDS011;36611;51.638;5.784;2022-11-15T18:31:21;6.90;;;3.40;;
48847;SDS011;36611;51.638;5.784;2022-11-15T18:33:52;6.20;;;3.83;;
48847;SDS011;36611;51.638;5.784;2022-11-15T18:36:24;5.45;;;3.78;;